^^
Grace C. Lehan Memorial Weather Station Historical Data
Daily Summary for January 28, 2021 Units:  English    Metric   Both
Daily Weekly Monthly Yearly
  High: Low: Average:
Temperature: 56.1 °F 45.3 °F 51.6 °F
Dew Point: 46.5 °F 40.8 °F 43.5 °F
Humidity: 85.1% 64.5% 74%
Wind Speed: 3.9mph 0mph 0.8mph
Wind Gust: 13mph - -
Wind- - SE
Pressure: 29.99 in 29.80 in -
Precipitation: 0.00 in    
 
 
Tabular Data for January 28, 2021
Time Temperature Dew Point Pressure Wind Wind Speed Wind Gust Humidity Rainfall Rate (Hourly) solar
00:09 50.8 °F 46.5 °F 29.80 in NE 0.4 mph 4 mph 85.1% 0.00 in 0 W/m2
00:14 50.8 °F 46.3 °F 29.80 in Calm   4 mph 84.4% 0.00 in 0 W/m2
00:19 50.7 °F 46 °F 29.80 in Calm   4 mph 83.8% 0.00 in 0 W/m2
00:24 50.7 °F 45.7 °F 29.81 in Calm   4 mph 82.9% 0.00 in 0 W/m2
00:29 50.7 °F 45.4 °F 29.81 in NNE 0.4 mph 4 mph 82% 0.00 in 0 W/m2
00:34 50.7 °F 45.4 °F 29.81 in North 0.4 mph 4 mph 82% 0.00 in 0 W/m2
00:39 50.6 °F 45 °F 29.82 in NNW 0.2 mph 4 mph 81.2% 0.00 in 0 W/m2
00:44 50.5 °F 44.9 °F 29.82 in NNW 0.6 mph 4 mph 81% 0.00 in 0 W/m2
00:49 50.4 °F 44.8 °F 29.82 in NNW 0.3 mph 4 mph 81% 0.00 in 0 W/m2
00:54 50.5 °F 44.9 °F 29.82 in NNW 0.4 mph 4 mph 81% 0.00 in 0 W/m2
00:59 50.6 °F 45 °F 29.83 in NW 0.1 mph 5 mph 81% 0.00 in 0 W/m2
01:04 50.7 °F 44.9 °F 29.83 in NW 0.3 mph 5 mph 80.5% 0.00 in 0 W/m2
01:09 50.8 °F 44.7 °F 29.83 in NW 0.6 mph 7 mph 79.5% 0.00 in 0 W/m2
01:14 50.9 °F 44.5 °F 29.83 in NW 0.7 mph 7 mph 78.5% 0.00 in 0 W/m2
01:19 51 °F 44.4 °F 29.83 in NNW 0.7 mph 7 mph 78% 0.00 in 0 W/m2
01:24 51 °F 44.4 °F 29.83 in NNW 0.3 mph 7 mph 78% 0.00 in 0 W/m2
01:29 51 °F 44.4 °F 29.83 in NNW 0.8 mph 7 mph 77.9% 0.00 in 0 W/m2
01:34 51 °F 44 °F 29.84 in NW 1 mph 7 mph 77% 0.00 in 0 W/m2
01:39 50.9 °F 43.9 °F 29.84 in NW 0.4 mph 7 mph 77% 0.00 in 0 W/m2
01:44 50.8 °F 43.8 °F 29.84 in NW 1.1 mph 7 mph 77% 0.00 in 0 W/m2
01:49 50.6 °F 43.7 °F 29.85 in NW 0.5 mph 7 mph 77% 0.00 in 0 W/m2
01:54 50.6 °F 43.8 °F 29.85 in NW 0.5 mph 7 mph 77.3% 0.00 in 0 W/m2
01:59 50.6 °F 44 °F 29.85 in NW 1.4 mph 7 mph 78% 0.00 in 0 W/m2
02:04 50.6 °F 44 °F 29.85 in NNW 0.8 mph 7 mph 78% 0.00 in 0 W/m2
02:09 50.6 °F 44 °F 29.85 in NW 1.4 mph 9 mph 78% 0.00 in 0 W/m2
02:14 50.6 °F 43.9 °F 29.86 in NNW 1.9 mph 12 mph 77.8% 0.00 in 0 W/m2
02:19 50.7 °F 43.8 °F 29.85 in NNW 1.7 mph 12 mph 77% 0.00 in 0 W/m2
02:24 50.8 °F 43.8 °F 29.86 in NNW 1.6 mph 12 mph 76.9% 0.00 in 0 W/m2
02:29 50.9 °F 43.6 °F 29.86 in NNW 0.9 mph 12 mph 76% 0.00 in 0 W/m2
02:34 51 °F 43.7 °F 29.86 in North 0.9 mph 12 mph 76% 0.00 in 0 W/m2
02:39 51 °F 43.7 °F 29.86 in NNE 0.3 mph 4 mph 76% 0.00 in 0 W/m2
02:44 51 °F 43.7 °F 29.86 in NNW 0.3 mph 5 mph 76% 0.00 in 0 W/m2
02:49 51 °F 43.7 °F 29.86 in NNW 0.4 mph 5 mph 76% 0.00 in 0 W/m2
02:54 51 °F 43.7 °F 29.86 in NNW 0.2 mph 5 mph 76% 0.00 in 0 W/m2
02:59 51 °F 43.7 °F 29.86 in Calm   5 mph 76% 0.00 in 0 W/m2
03:04 51 °F 43.7 °F 29.86 in North 0.6 mph 6 mph 75.8% 0.00 in 0 W/m2
03:09 51 °F 43.7 °F 29.86 in ENE 0.8 mph 7 mph 76% 0.00 in 0 W/m2
03:14 51 °F 43.7 °F 29.87 in SSW 0.3 mph 7 mph 76% 0.00 in 0 W/m2
03:19 51 °F 43.7 °F 29.87 in NNE 0.1 mph 7 mph 76% 0.00 in 0 W/m2
03:24 50.9 °F 43.4 °F 29.87 in Calm   7 mph 75.5% 0.00 in 0 W/m2
03:29 50.9 °F 43.6 °F 29.87 in NNW 0.2 mph 7 mph 75.8% 0.00 in 0 W/m2
03:34 50.8 °F 43.6 °F 29.87 in NE 0.3 mph 7 mph 76% 0.00 in 0 W/m2
03:39 50.8 °F 43.3 °F 29.87 in ENE 0.2 mph 4 mph 75.5% 0.00 in 0 W/m2
03:44 50.8 °F 43.5 °F 29.87 in ENE 0.1 mph 4 mph 76% 0.00 in 0 W/m2
03:49 50.7 °F 43.5 °F 29.87 in NE 0.2 mph 4 mph 76% 0.00 in 0 W/m2
03:54 50.7 °F 43.4 °F 29.87 in ENE 0.4 mph 5 mph 76% 0.00 in 0 W/m2
03:59 50.6 °F 43.3 °F 29.88 in ENE 0.1 mph 5 mph 76% 0.00 in 0 W/m2
04:04 50.6 °F 43.7 °F 29.87 in Calm     77% 0.00 in 0 W/m2
04:09 50.5 °F 43.6 °F 29.88 in Calm   1 mph 77% 0.00 in 0 W/m2
04:14 50.5 °F 43.5 °F 29.88 in NNE 0.6 mph 6 mph 77% 0.00 in 0 W/m2
04:19 50.4 °F 43.4 °F 29.88 in ENE 0.2 mph 6 mph 77% 0.00 in 0 W/m2
04:24 50.3 °F 43.3 °F 29.88 in NE 0.1 mph 6 mph 76.7% 0.00 in 0 W/m2
04:29 50.2 °F 43.3 °F 29.88 in Calm   6 mph 77% 0.00 in 0 W/m2
04:34 50.1 °F 43.2 °F 29.89 in ENE 0.5 mph 6 mph 77% 0.00 in 0 W/m2
04:39 50 °F 43 °F 29.89 in ENE 0.4 mph 6 mph 77% 0.00 in 0 W/m2
04:44 49.8 °F 43 °F 29.89 in Calm   6 mph 77.5% 0.00 in 0 W/m2
04:49 49.6 °F 43.1 °F 29.89 in NE 0.4 mph 6 mph 78% 0.00 in 0 W/m2
04:54 49.5 °F 42.9 °F 29.89 in NE 0.6 mph 6 mph 78% 0.00 in 0 W/m2
04:59 49.4 °F 43.2 °F 29.89 in NE 0.8 mph 7 mph 79% 0.00 in 0 W/m2
05:04 49.3 °F 43.1 °F 29.89 in ENE 0.7 mph 7 mph 79% 0.00 in 0 W/m2
05:09 49.2 °F 43 °F 29.89 in ENE 0.2 mph 5 mph 79% 0.00 in 0 W/m2
05:14 49.2 °F 43.1 °F 29.89 in NE 0.2 mph 5 mph 79.5% 0.00 in 0 W/m2
05:19 49.2 °F 43 °F 29.90 in Calm   5 mph 79% 0.00 in 0 W/m2
05:24 49.2 °F 43 °F 29.90 in NE 0.1 mph 5 mph 79% 0.00 in 0 W/m2
05:29 49.2 °F 43 °F 29.90 in Calm   5 mph 79.1% 0.00 in 0 W/m2
05:34 49.2 °F 43 °F 29.90 in NNE 0.2 mph 5 mph 79% 0.00 in 0 W/m2
05:39 49.2 °F 43.1 °F 29.91 in North 0.5 mph 6 mph 79.4% 0.00 in 0 W/m2
05:44 49.1 °F 43.2 °F 29.91 in Calm   6 mph 80% 0.00 in 0 W/m2
05:49 49.1 °F 43.2 °F 29.91 in North 0.3 mph 6 mph 80% 0.00 in 0 W/m2
05:54 49.1 °F 43.2 °F 29.91 in North 0.2 mph 6 mph 80% 0.00 in 0 W/m2
05:59 49 °F 43.1 °F 29.91 in North 0.1 mph 6 mph 80% 0.00 in 0 W/m2
06:04 48.9 °F 43 °F 29.91 in NE 0.6 mph 6 mph 80% 0.00 in 0 W/m2
06:09 48.8 °F 43 °F 29.91 in Calm   4 mph 80% 0.00 in 0 W/m2
06:14 48.8 °F 42.9 °F 29.91 in NE 0.1 mph 4 mph 80% 0.00 in 0 W/m2
06:19 48.7 °F 42.8 °F 29.91 in NE 0.1 mph 4 mph 80% 0.00 in 0 W/m2
06:24 48.7 °F 42.8 °F 29.91 in Calm   4 mph 80% 0.00 in 0 W/m2
06:29 48.6 °F 42.7 °F 29.91 in Calm   4 mph 80% 0.00 in 0 W/m2
06:34 48.5 °F 42.6 °F 29.91 in Calm   4 mph 80% 0.00 in 0 W/m2
06:39 48.3 °F 42.5 °F 29.91 in Calm   2 mph 80% 0.00 in 0 W/m2
06:44 48.2 °F 42.5 °F 29.91 in Calm   2 mph 80.5% 0.00 in 0 W/m2
06:49 48.1 °F 42.6 °F 29.91 in North 0.2 mph 3 mph 81% 0.00 in 0 W/m2
06:54 48.1 °F 42.5 °F 29.91 in NNE 0.2 mph 3 mph 81% 0.00 in 0 W/m2
06:59 48 °F 42.5 °F 29.91 in Calm   3 mph 81% 0.00 in 0 W/m2
07:04 48 °F 42.5 °F 29.92 in NNE 0.4 mph 3 mph 81% 0.00 in 0 W/m2
07:09 48 °F 42.5 °F 29.92 in ENE 0.4 mph 4 mph 81% 0.00 in 0 W/m2
07:14 48 °F 42.5 °F 29.92 in Calm   4 mph 81% 0.00 in 0 W/m2
07:19 48 °F 42.4 °F 29.92 in ENE 0.2 mph 4 mph 81% 0.00 in 0 W/m2
07:24 47.9 °F 42.4 °F 29.92 in ENE 1 mph 7 mph 81% 0.00 in 5 W/m2
07:29 47.9 °F 42.3 °F 29.92 in ENE 0.4 mph 7 mph 80.8% 0.00 in 7 W/m2
07:34 47.9 °F 42.4 °F 29.92 in ENE 0.5 mph 7 mph 81% 0.00 in 19 W/m2
07:39 47.9 °F 42.4 °F 29.92 in ENE 1 mph 7 mph 81% 0.00 in 23 W/m2
07:44 47.9 °F 42.4 °F 29.92 in Calm   7 mph 81% 0.00 in 26 W/m2
07:49 47.9 °F 42.4 °F 29.93 in East 0.3 mph 7 mph 81% 0.00 in 33 W/m2
07:54 47.9 °F 42.4 °F 29.93 in Calm   7 mph 81% 0.00 in 33 W/m2
07:59 48 °F 42.5 °F 29.93 in ENE 0.7 mph 7 mph 81% 0.00 in 33 W/m2
08:00 48 °F 42.5 °F 29.93 in Calm   7 mph 81% 0.00 in 33 W/m2
08:09 48.1 °F 42.5 °F 29.93 in ENE 0.8 mph 5 mph 81% 0.00 in 42 W/m2
08:14 48.1 °F 42.6 °F 29.94 in Calm   5 mph 81% 0.00 in 44 W/m2
08:19 48.1 °F 42.7 °F 29.94 in ENE 0.1 mph 5 mph 81.5% 0.00 in 42 W/m2
08:24 48.1 °F 42.6 °F 29.95 in East 0.1 mph 5 mph 81% 0.00 in 40 W/m2
08:29 48.2 °F 42.8 °F 29.95 in Calm   5 mph 81.4% 0.00 in 53 W/m2
08:34 48.2 °F 43 °F 29.95 in Calm   5 mph 82% 0.00 in 83 W/m2
08:39 48.4 °F 43.1 °F 29.96 in ENE 0.1 mph 3 mph 82% 0.00 in 111 W/m2
08:44 48.6 °F 43.2 °F 29.96 in NE 0.8 mph 7 mph 81.6% 0.00 in 105 W/m2
08:49 48.8 °F 43.1 °F 29.96 in ENE 2.7 mph 9 mph 80.6% 0.00 in 181 W/m2
08:54 49.1 °F 42.9 °F 29.96 in ENE 3.6 mph 9 mph 79.3% 0.00 in 181 W/m2
08:59 49.3 °F 42.7 °F 29.95 in ENE 2 mph 9 mph 77.8% 0.00 in 186 W/m2
09:04 49.7 °F 43 °F 29.95 in ENE 1.7 mph 9 mph 77.7% 0.00 in 250 W/m2
09:09 50.4 °F 43 °F 29.95 in ENE 2.2 mph 9 mph 75.8% 0.00 in 367 W/m2
09:14 51 °F 43.1 °F 29.95 in ENE 3.2 mph 9 mph 74.2% 0.00 in 374 W/m2
09:19 51.5 °F 43.1 °F 29.96 in ENE 1.8 mph 9 mph 73% 0.00 in 381 W/m2
09:24 51.8 °F 43.6 °F 29.96 in NE 0.5 mph 9 mph 73.3% 0.00 in 381 W/m2
09:29 52 °F 43.4 °F 29.96 in ENE 1.4 mph 9 mph 72.2% 0.00 in 380 W/m2
09:34 52.2 °F 43.2 °F 29.97 in East 1.6 mph 9 mph 71.3% 0.00 in 496 W/m2
09:39 52.3 °F 43.3 °F 29.96 in East 2.4 mph 10 mph 71.1% 0.00 in 527 W/m2
09:44 52.6 °F 43.4 °F 29.96 in ENE 0.5 mph 10 mph 70.8% 0.00 in 561 W/m2
09:49 53.3 °F 43.9 °F 29.97 in North 1.9 mph 10 mph 70.5% 0.00 in 598 W/m2
09:54 53.8 °F 43.9 °F 29.97 in ENE 2.9 mph 10 mph 68.9% 0.00 in 605 W/m2
09:59 54.2 °F 43.9 °F 29.97 in ENE 2.4 mph 10 mph 67.9% 0.00 in 605 W/m2
10:04 54.2 °F 42.8 °F 29.97 in ENE 1.9 mph 10 mph 65.4% 0.00 in 517 W/m2
10:09 53.8 °F 42.8 °F 29.97 in NNE 2 mph 11 mph 66% 0.00 in 517 W/m2
10:14 53.6 °F 42.7 °F 29.97 in ENE 1.1 mph 11 mph 66.4% 0.00 in 499 W/m2
10:19 54 °F 43.7 °F 29.97 in ENE 1.2 mph 11 mph 68% 0.00 in 504 W/m2
10:24 54.4 °F 43 °F 29.97 in ENE 3.1 mph 11 mph 65.1% 0.00 in 501 W/m2
10:29 54.2 °F 42.5 °F 29.97 in East 2.3 mph 11 mph 64.5% 0.00 in 548 W/m2
10:34 54 °F 42.8 °F 29.97 in East 1.5 mph 11 mph 65.7% 0.00 in 603 W/m2
10:39 54 °F 42.9 °F 29.97 in NE 1 mph 6 mph 65.8% 0.00 in 659 W/m2
10:44 54.4 °F 43.4 °F 29.97 in NE 1.5 mph 7 mph 66.3% 0.00 in 659 W/m2
10:49 54.5 °F 43.1 °F 29.97 in NE 0.8 mph 7 mph 65.3% 0.00 in 643 W/m2
10:54 54.5 °F 43.2 °F 29.97 in ENE 1.9 mph 7 mph 65.3% 0.00 in 512 W/m2
10:59 54.5 °F 43.2 °F 29.96 in NE 2.6 mph 7 mph 65.4% 0.00 in 571 W/m2
11:04 54.6 °F 43.4 °F 29.96 in NE 2.3 mph 13 mph 65.7% 0.00 in 550 W/m2
11:09 54.6 °F 43.1 °F 29.96 in East 1.6 mph 13 mph 65.3% 0.00 in 497 W/m2
11:14 54.4 °F 43 °F 29.96 in ENE 1.8 mph 13 mph 65.3% 0.00 in 571 W/m2
11:19 54.5 °F 43.3 °F 29.96 in ENE 2.9 mph 13 mph 65.8% 0.00 in 613 W/m2
11:24 54.4 °F 43 °F 29.96 in ENE 2.8 mph 13 mph 65.2% 0.00 in 613 W/m2
11:29 54.4 °F 43.2 °F 29.96 in East 3 mph 13 mph 65.7% 0.00 in 503 W/m2
11:34 54.4 °F 43.3 °F 29.95 in ENE 2.1 mph 13 mph 65.9% 0.00 in 686 W/m2
11:39 54.6 °F 43.5 °F 29.95 in ENE 1.2 mph 9 mph 66.2% 0.00 in 715 W/m2
11:44 54.8 °F 43.9 °F 29.95 in ENE 1.9 mph 9 mph 66.6% 0.00 in 615 W/m2
11:49 55 °F 43.4 °F 29.95 in ENE 3.9 mph 11 mph 64.9% 0.00 in 388 W/m2
11:54 54.8 °F 43.5 °F 29.95 in ENE 2.3 mph 11 mph 65.6% 0.00 in 371 W/m2
11:59 54.5 °F 43.1 °F 29.94 in ENE 2.9 mph 11 mph 65.4% 0.00 in 339 W/m2
12:09 54.3 °F 43.3 °F 29.94 in ENE 2.8 mph 11 mph 66.4% 0.00 in 388 W/m2
12:14 54.1 °F 43.2 °F 29.94 in NE 3.1 mph 11 mph 66.3% 0.00 in 366 W/m2
12:19 54.1 °F 43.3 °F 29.94 in ENE 2.2 mph 11 mph 66.9% 0.00 in 327 W/m2
12:24 54.1 °F 43.6 °F 29.94 in NE 1.7 mph 11 mph 67.5% 0.00 in 304 W/m2
12:29 54.1 °F 43.6 °F 29.94 in NE 1.6 mph 11 mph 67.3% 0.00 in 295 W/m2
12:34 54.4 °F 44 °F 29.94 in NE 0.8 mph 11 mph 67.6% 0.00 in 295 W/m2
12:39 54.6 °F 43.7 °F 29.94 in ENE 1.5 mph 6 mph 66.5% 0.00 in 315 W/m2
12:44 54.6 °F 43.6 °F 29.93 in ENE 2.2 mph 7 mph 66.4% 0.00 in 311 W/m2
12:49 54.5 °F 43.6 °F 29.93 in ENE 1.3 mph 7 mph 66.5% 0.00 in 260 W/m2
12:54 54.4 °F 43.4 °F 29.93 in ENE 0.8 mph 7 mph 66.3% 0.00 in 271 W/m2
12:59 54.3 °F 43.7 °F 29.93 in East 1.4 mph 7 mph 67.2% 0.00 in 294 W/m2
13:04 54.2 °F 43.4 °F 29.93 in ENE 1.3 mph 7 mph 66.8% 0.00 in 308 W/m2
13:09 54.3 °F 44.1 °F 29.93 in North 0.7 mph 6 mph 68.3% 0.00 in 279 W/m2
13:14 54.6 °F 44.5 °F 29.93 in Calm   6 mph 68.6% 0.00 in 262 W/m2
13:19 54.8 °F 44.2 °F 29.93 in East 0.2 mph 6 mph 67.3% 0.00 in 258 W/m2
13:24 54.8 °F 44.1 °F 29.93 in NNE 0.3 mph 6 mph 67.1% 0.00 in 243 W/m2
13:29 54.9 °F 44.5 °F 29.93 in NNE 1.2 mph 6 mph 67.8% 0.00 in 241 W/m2
13:34 55 °F 44.3 °F 29.93 in NNE 1.3 mph 7 mph 67.2% 0.00 in 230 W/m2
13:39 55 °F 44.7 °F 29.93 in NNW 0.4 mph 7 mph 68% 0.00 in 227 W/m2
13:44 55 °F 44.8 °F 29.93 in NNW 0.2 mph 7 mph 68.3% 0.00 in 220 W/m2
13:49 55.1 °F 44.8 °F 29.93 in NW 1 mph 10 mph 68% 0.00 in 232 W/m2
13:54 55.2 °F 44.4 °F 29.92 in NNW 0.7 mph 10 mph 66.9% 0.00 in 232 W/m2
13:59 55.2 °F 44.7 °F 29.92 in ENE 0.4 mph 10 mph 67.7% 0.00 in 229 W/m2
14:04 55.2 °F 44.4 °F 29.92 in ENE 0.9 mph 10 mph 67% 0.00 in 227 W/m2
14:09 55.1 °F 44.5 °F 29.92 in ENE 0.4 mph 5 mph 67.3% 0.00 in 227 W/m2
14:14 55.2 °F 44.7 °F 29.92 in NE 1.5 mph 6 mph 67.6% 0.00 in 230 W/m2
14:19 55.2 °F 44.5 °F 29.92 in North 0.7 mph 6 mph 67.2% 0.00 in 209 W/m2
14:24 55.3 °F 44.7 °F 29.92 in Calm   6 mph 67.5% 0.00 in 197 W/m2
14:29 55.4 °F 44.8 °F 29.92 in NW 0.2 mph 6 mph 67.5% 0.00 in 209 W/m2
14:34 55.6 °F 45.2 °F 29.92 in NW 0.2 mph 6 mph 68.1% 0.00 in 207 W/m2
14:39 55.8 °F 44.9 °F 29.92 in North 0.3 mph 2 mph 66.8% 0.00 in 163 W/m2
14:44 55.7 °F 44.5 °F 29.92 in NNE 0.1 mph 2 mph 66% 0.00 in 153 W/m2
14:49 55.7 °F 44.7 °F 29.92 in NNE 0.4 mph 3 mph 66.7% 0.00 in 246 W/m2
14:54 55.7 °F 44.8 °F 29.92 in North 0.9 mph 4 mph 66.6% 0.00 in 172 W/m2
14:59 55.7 °F 44.9 °F 29.92 in North 0.4 mph 4 mph 66.8% 0.00 in 169 W/m2
15:04 55.7 °F 44.9 °F 29.92 in NNW 0.3 mph 4 mph 66.9% 0.00 in 135 W/m2
15:09 55.7 °F 44.9 °F 29.92 in North 0.2 mph 3 mph 67% 0.00 in 125 W/m2
15:14 55.7 °F 45 °F 29.92 in NE 1.7 mph 7 mph 67% 0.00 in 311 W/m2
15:19 55.8 °F 44.8 °F 29.92 in ENE 2.2 mph 7 mph 66.3% 0.00 in 497 W/m2
15:24 56 °F 44.6 °F 29.92 in ENE 1.2 mph 7 mph 65.5% 0.00 in 473 W/m2
15:29 56.1 °F 44.6 °F 29.91 in ENE 0.3 mph 7 mph 65.3% 0.00 in 424 W/m2
15:34 56.1 °F 45 °F 29.91 in ENE 1.5 mph 7 mph 66.1% 0.00 in 183 W/m2
15:39 55.9 °F 44.7 °F 29.91 in East 0.1 mph 4 mph 65.7% 0.00 in 46 W/m2
15:44 55.8 °F 44.7 °F 29.91 in ENE 0.8 mph 4 mph 66.2% 0.00 in 69 W/m2
15:49 55.7 °F 44.6 °F 29.92 in ENE 1.1 mph 5 mph 66.2% 0.00 in 76 W/m2
15:54 55.7 °F 44.5 °F 29.92 in Calm   5 mph 66% 0.00 in 51 W/m2
15:59 55.6 °F 44.7 °F 29.92 in ENE 0.5 mph 5 mph 66.8% 0.00 in 42 W/m2
16:00 55.5 °F 44.7 °F 29.92 in Calm   5 mph 67% 0.00 in 28 W/m2
16:09 55.3 °F 44.4 °F 29.92 in NE 0.5 mph 5 mph 66.9% 0.00 in 39 W/m2
16:11 55.1 °F 44 °F 29.92 in Calm   5 mph 66.2% 0.00 in 44 W/m2
17:00 54.3 °F 44.4 °F 29.92 in ENE 1 mph 9 mph 69% 0.00 in 23 W/m2
17:30 53.3 °F 43.8 °F 29.93 in Calm   4 mph 70% 0.00 in 14 W/m2
18:00 51.6 °F 43.2 °F 29.94 in Calm   2 mph 73% 0.00 in 1 W/m2
18:30 50.1 °F 42.5 °F 29.95 in Calm   3 mph 75% 0.00 in 0 W/m2
19:00 49 °F 42.1 °F 29.96 in Calm   3 mph 77% 0.00 in 0 W/m2
19:30 47.7 °F 41.5 °F 29.97 in Calm     79% 0.00 in 0 W/m2
20:04 46.5 °F 41 °F 29.98 in Calm     81% 0.00 in 0 W/m2
20:09 46.4 °F 40.9 °F 29.98 in Calm     81% 0.00 in 0 W/m2
20:14 46.3 °F 41.1 °F 29.98 in Calm     81.9% 0.00 in 0 W/m2
20:19 46.2 °F 41.2 °F 29.98 in Calm     82.4% 0.00 in 0 W/m2
20:24 46 °F 41.2 °F 29.98 in Calm     83% 0.00 in 0 W/m2
20:29 45.8 °F 41 °F 29.98 in Calm     83% 0.00 in 0 W/m2
20:34 45.7 °F 41 °F 29.99 in Calm     83.7% 0.00 in 0 W/m2
20:39 45.5 °F 40.9 °F 29.99 in Calm     84% 0.00 in 0 W/m2
20:43 45.3 °F 40.8 °F 29.99 in Calm     84% 0.00 in 0 W/m2
Hartford County Weather
Compliments of Weather Underground - 4 mb